Aérodrome :
LOGIN :

S'inscrire | Disclaimer

   EN    FR    IT 

 










Légende :    VFR   VFR Marginal   IFR   IFR Intensif   IFR Très Intensif
Visi : 
Plafond : 
>= 8 km
>= 3000ft
5 à 8 km
1000 à 3000 ft
1500m à 5 km
500 à 1000 ft
800 à 1500m
200 à 500 ft
< 800m
< 200 ft
Symboles :   Orages  Brouillard  Fortes neiges  Fortes précipitations  Vent > 20 kt
SIGMETs :   Divers  Orages  Givrage  Turbulence  Onde Orograph.  Cendres Volcan.







- Altitude de l'aérodrome : 36 ft
- Code IATA : GJL


DAAV - Jijel Ferhat Abbas

DERNIER METAR :
  • 231900Z 04003KT 8000 FEW020 SCT033 BKN090 27/20 Q1016

METARs EXPIRÉS :
  • 231800Z 36002KT 9999 FEW020 BKN033 27/19 Q1016
  • 231700Z 01004KT 9000 FEW020 BKN090 27/20 Q1016

TAF TAF DAAV
Valide du 23 à 18h jusqu'au 24 à 18h UTC


231700Z 2318/2418 30008KT 9000 SCT020 BKN100
PROB30
TEMPO 2318/2321 FEW020TCU
BECMG 2319/2321 16008KT
PROB30
TEMPO 2400/2406 VRB02KT 2000 BR BKN010
BECMG 2404/2415 01010KT
TEMPO 2406/2412 FEW023TCU
Pas de NOTAMs connus pour ce terrain.



MET'MAP, la Météo Aéronautique d'un coup d'oeil ! - Copyright ORBIFLY Décembre 2007 - Disclaimer

ORBIFLY MET'MAP TEAM :

Programmation & Développement : Alexandra Zaïnal
Conception & Développement : Baudouin d'Aumeries
Co-Programmation & Développement : Marc-Olivier Méhu
Soutien technique & logistique : Manuel Goepfert

Contact : metmap@orbifly.com




SOURCES & CREDITS :

   NOAA